Time;durP1;ratioP1;P1;durP2;ratioP2;P2;SDS_P1;SDS_P2;PMS_P1;PMS_P2;Temp;Humidity;BMP_temperature;BMP_pressure;BME280_temperature;BME280_humidity;BME280_pressure;Samples;Min_cycle;Max_cycle;Signal;HPM_P1;HPM_P2
2022/10/24 00:01:07;;;;;;;22.83;3.15;;;;;;;;;;5035676;28;20037;-60
2022/10/24 00:03:34;;;;;;;17.60;2.80;;;;;;;;;;5035735;28;20029;-60
2022/10/24 00:06:00;;;;;;;14.75;2.60;;;;;;;;;;5035659;28;20148;-60
2022/10/24 00:08:26;;;;;;;19.58;3.20;;;;;;;;;;5035702;28;20045;-60
2022/10/24 00:10:52;;;;;;;25.20;3.20;;;;;;;;;;5035397;28;20067;-60
2022/10/24 00:13:18;;;;;;;19.15;3.28;;;;;;;;;;5035417;28;20128;-60
2022/10/24 00:15:46;;;;;;;15.23;2.15;;;;;;;;;;5035304;28;20061;-60
2022/10/24 00:18:12;;;;;;;16.15;2.50;;;;;;;;;;5035524;28;20398;-60
2022/10/24 00:20:38;;;;;;;10.60;3.15;;;;;;;;;;5035222;28;20108;-60
2022/10/24 00:23:04;;;;;;;18.70;3.25;;;;;;;;;;5034973;28;20465;-60
2022/10/24 00:25:31;;;;;;;14.65;2.30;;;;;;;;;;5034885;28;20034;-60
2022/10/24 00:27:57;;;;;;;12.70;2.22;;;;;;;;;;5035274;28;20117;-60
2022/10/24 00:30:23;;;;;;;25.23;3.20;;;;;;;;;;5034846;28;20029;-60
2022/10/24 00:32:50;;;;;;;17.60;2.75;;;;;;;;;;5035298;28;20452;-60
2022/10/24 00:35:16;;;;;;;13.80;2.60;;;;;;;;;;5035116;28;20049;-60
2022/10/24 00:37:42;;;;;;;18.05;2.90;;;;;;;;;;5035322;28;20366;-60
2022/10/24 00:40:09;;;;;;;19.67;2.55;;;;;;;;;;5035156;28;20033;-60
2022/10/24 00:42:35;;;;;;;15.35;2.70;;;;;;;;;;5031113;28;20029;-60
2022/10/24 00:45:21;;;;;;;24.30;2.53;;;;;;;;;;5021022;28;20014;-60
2022/10/24 00:47:47;;;;;;;18.63;2.75;;;;;;;;;;5031308;28;20075;-60
2022/10/24 00:50:14;;;;;;;16.90;2.67;;;;;;;;;;5022799;28;20018;-60
2022/10/24 00:52:42;;;;;;;19.85;3.20;;;;;;;;;;5025217;28;20091;-60
2022/10/24 00:55:09;;;;;;;21.00;3.42;;;;;;;;;;5029977;28;20032;-60
2022/10/24 00:57:37;;;;;;;16.55;2.90;;;;;;;;;;5033111;28;20048;-60
2022/10/24 01:00:08;;;;;;;18.90;2.55;;;;;;;;;;5033221;28;20485;-60
2022/10/24 01:02:35;;;;;;;17.10;2.83;;;;;;;;;;5015702;28;20053;-60
2022/10/24 01:05:02;;;;;;;16.70;2.30;;;;;;;;;;5031142;28;20025;-60
2022/10/24 01:07:34;;;;;;;13.90;2.05;;;;;;;;;;5016924;28;20164;-60
2022/10/24 01:10:03;;;;;;;17.67;2.60;;;;;;;;;;5025153;28;20018;-60
2022/10/24 01:12:42;;;;;;;15.57;2.63;;;;;;;;;;5032871;28;20516;-60
2022/10/24 01:15:28;;;;;;;16.45;2.40;;;;;;;;;;5032711;28;20025;-60
2022/10/24 01:18:08;;;;;;;20.65;2.33;;;;;;;;;;5015040;28;20026;-60
2022/10/24 01:21:03;;;;;;;21.65;2.30;;;;;;;;;;5030444;28;20029;-60
2022/10/24 01:23:45;;;;;;;16.55;2.42;;;;;;;;;;5031639;28;20104;-60
2022/10/24 01:26:11;;;;;;;15.02;2.60;;;;;;;;;;5021342;28;20532;-60
2022/10/24 01:28:42;;;;;;;11.02;1.73;;;;;;;;;;5016957;28;20424;-59
2022/10/24 01:31:13;;;;;;;9.85;2.20;;;;;;;;;;5019900;28;20025;-60
2022/10/24 01:33:41;;;;;;;10.75;2.33;;;;;;;;;;5032889;28;20444;-60
2022/10/24 01:36:10;;;;;;;14.68;2.33;;;;;;;;;;5031990;28;20056;-60
2022/10/24 01:38:57;;;;;;;13.35;2.35;;;;;;;;;;5032669;28;20029;-60
2022/10/24 01:41:24;;;;;;;13.77;2.50;;;;;;;;;;5032567;28;20029;-60
2022/10/24 01:43:56;;;;;;;15.30;3.53;;;;;;;;;;5027105;28;20025;-60
2022/10/24 01:46:27;;;;;;;14.25;1.98;;;;;;;;;;5017360;28;20029;-60
2022/10/24 01:49:06;;;;;;;18.17;2.17;;;;;;;;;;5028866;28;20466;-60
2022/10/24 01:51:33;;;;;;;17.25;3.00;;;;;;;;;;5032296;28;20036;-60
2022/10/24 01:54:00;;;;;;;18.80;2.30;;;;;;;;;;5032308;28;20033;-60
2022/10/24 01:56:26;;;;;;;13.30;2.20;;;;;;;;;;5031989;28;20025;-60
2022/10/24 01:58:52;;;;;;;14.93;2.22;;;;;;;;;;5022250;28;20036;-60
2022/10/24 02:01:22;;;;;;;18.60;2.33;;;;;;;;;;5025630;28;20393;-59
2022/10/24 02:03:57;;;;;;;12.95;2.00;;;;;;;;;;5033274;28;20370;-60
2022/10/24 02:06:26;;;;;;;13.90;2.08;;;;;;;;;;5033038;28;20037;-60
2022/10/24 02:08:53;;;;;;;15.45;2.20;;;;;;;;;;5033213;28;20025;-60
2022/10/24 02:11:19;;;;;;;15.40;2.05;;;;;;;;;;5032738;28;20410;-60
2022/10/24 02:14:07;;;;;;;11.02;2.20;;;;;;;;;;5033337;28;20033;-60
2022/10/24 02:16:34;;;;;;;11.75;2.33;;;;;;;;;;5033346;28;20029;-60
2022/10/24 02:19:01;;;;;;;22.13;2.30;;;;;;;;;;5033546;28;20029;-60
2022/10/24 02:21:27;;;;;;;9.80;2.03;;;;;;;;;;5033331;28;20033;-60
2022/10/24 02:24:06;;;;;;;10.43;2.08;;;;;;;;;;5033283;28;20028;-60
2022/10/24 02:26:55;;;;;;;9.60;2.05;;;;;;;;;;5032678;28;20044;-60
2022/10/24 02:29:25;;;;;;;12.07;1.80;;;;;;;;;;5032757;28;20103;-60
2022/10/24 02:31:54;;;;;;;11.15;2.30;;;;;;;;;;5032195;28;20061;-60
2022/10/24 02:34:21;;;;;;;8.15;1.80;;;;;;;;;;5033014;28;20120;-60
2022/10/24 02:36:48;;;;;;;17.20;2.10;;;;;;;;;;5032959;28;20021;-60
2022/10/24 02:39:15;;;;;;;10.07;1.90;;;;;;;;;;5032802;28;20018;-60
2022/10/24 02:41:43;;;;;;;15.27;2.38;;;;;;;;;;5032703;28;20083;-59
2022/10/24 02:44:11;;;;;;;11.35;1.90;;;;;;;;;;5032741;28;20056;-60
2022/10/24 02:46:38;;;;;;;22.77;2.85;;;;;;;;;;5032634;28;20371;-60
2022/10/24 02:49:04;;;;;;;18.05;2.30;;;;;;;;;;5032965;28;20057;-60
2022/10/24 02:51:32;;;;;;;15.45;2.25;;;;;;;;;;5032701;28;20044;-60
2022/10/24 02:54:00;;;;;;;23.40;2.55;;;;;;;;;;5032409;28;20099;-60
2022/10/24 02:56:26;;;;;;;21.65;2.30;;;;;;;;;;5032558;28;20504;-60
2022/10/24 02:58:52;;;;;;;24.60;2.55;;;;;;;;;;5032623;28;20474;-60
2022/10/24 03:01:18;;;;;;;10.50;2.30;;;;;;;;;;5032123;28;20044;-60
2022/10/24 03:03:45;;;;;;;14.57;2.60;;;;;;;;;;5032752;28;20034;-63
2022/10/24 03:06:11;;;;;;;15.90;2.25;;;;;;;;;;5032592;28;20033;-63
2022/10/24 03:08:37;;;;;;;15.73;3.38;;;;;;;;;;5032426;28;20485;-63
2022/10/24 03:11:03;;;;;;;19.52;2.88;;;;;;;;;;5032252;28;20132;-63
2022/10/24 03:13:29;;;;;;;23.92;2.95;;;;;;;;;;5032536;28;20107;-63
2022/10/24 03:15:56;;;;;;;13.27;2.40;;;;;;;;;;5032536;28;20493;-63
2022/10/24 03:18:22;;;;;;;14.38;2.53;;;;;;;;;;5032720;28;20025;-63
2022/10/24 03:20:48;;;;;;;18.20;3.45;;;;;;;;;;5031979;28;20040;-63
2022/10/24 03:23:15;;;;;;;18.15;2.55;;;;;;;;;;5032507;28;20033;-63
2022/10/24 03:25:41;;;;;;;17.55;2.97;;;;;;;;;;5032356;28;20378;-63
2022/10/24 03:28:07;;;;;;;13.23;2.60;;;;;;;;;;5032476;28;20112;-63
2022/10/24 03:30:33;;;;;;;20.55;3.65;;;;;;;;;;5032319;28;20039;-63
2022/10/24 03:32:59;;;;;;;20.20;3.45;;;;;;;;;;5032249;28;20116;-63
2022/10/24 03:35:25;;;;;;;21.48;2.92;;;;;;;;;;5032497;28;20512;-63
2022/10/24 03:37:52;;;;;;;12.80;2.47;;;;;;;;;;5032408;28;20029;-63
2022/10/24 03:40:18;;;;;;;22.52;2.92;;;;;;;;;;5032356;28;20026;-63
2022/10/24 03:42:44;;;;;;;26.42;4.05;;;;;;;;;;5032097;28;20033;-63
2022/10/24 03:45:10;;;;;;;18.95;3.13;;;;;;;;;;5046416;28;20404;-63
2022/10/24 03:47:36;;;;;;;14.20;1.98;;;;;;;;;;5052404;28;20115;-63
2022/10/24 03:50:03;;;;;;;20.42;2.88;;;;;;;;;;5052137;28;20103;-63
2022/10/24 03:52:29;;;;;;;18.10;2.72;;;;;;;;;;5051731;28;20078;-63
2022/10/24 03:54:55;;;;;;;20.48;2.58;;;;;;;;;;5052112;28;20033;-63
2022/10/24 03:57:21;;;;;;;15.00;2.97;;;;;;;;;;5037501;28;20072;-63
2022/10/24 03:59:47;;;;;;;19.35;3.08;;;;;;;;;;5033340;28;20021;-63
2022/10/24 04:02:13;;;;;;;20.40;2.63;;;;;;;;;;5031940;28;20063;-63
2022/10/24 04:04:41;;;;;;;11.40;2.47;;;;;;;;;;5033503;28;20389;-63
2022/10/24 04:07:07;;;;;;;23.70;2.65;;;;;;;;;;5035243;28;20047;-63
2022/10/24 04:09:33;;;;;;;19.77;3.63;;;;;;;;;;5035037;28;20108;-63
2022/10/24 04:11:59;;;;;;;18.38;2.85;;;;;;;;;;5034237;28;20055;-63
2022/10/24 04:14:25;;;;;;;15.77;2.53;;;;;;;;;;5034019;28;20042;-63
2022/10/24 04:16:51;;;;;;;12.07;2.30;;;;;;;;;;5035311;28;20086;-63
2022/10/24 04:19:18;;;;;;;19.17;3.40;;;;;;;;;;5035418;28;20032;-63
2022/10/24 04:21:46;;;;;;;17.15;2.65;;;;;;;;;;5035516;28;20021;-63
2022/10/24 04:24:13;;;;;;;18.25;3.63;;;;;;;;;;5035284;28;20120;-63
2022/10/24 04:26:39;;;;;;;16.00;1.65;;;;;;;;;;5035309;28;20030;-63
2022/10/24 04:29:05;;;;;;;16.98;3.55;;;;;;;;;;5035143;28;20031;-63
2022/10/24 04:31:31;;;;;;;9.40;2.72;;;;;;;;;;5033776;28;20039;-63
2022/10/24 04:33:58;;;;;;;13.88;2.50;;;;;;;;;;5035092;28;20029;-63
2022/10/24 04:36:24;;;;;;;11.63;2.25;;;;;;;;;;5034938;28;20249;-63
2022/10/24 04:38:50;;;;;;;14.40;2.72;;;;;;;;;;5034623;28;20061;-63
2022/10/24 04:41:16;;;;;;;13.93;2.33;;;;;;;;;;5034523;28;20056;-63
2022/10/24 04:43:42;;;;;;;15.85;2.53;;;;;;;;;;5035344;28;20139;-63
2022/10/24 04:46:08;;;;;;;12.13;3.38;;;;;;;;;;5033955;28;20034;-63
2022/10/24 04:48:34;;;;;;;17.35;3.67;;;;;;;;;;5033973;28;20044;-63
2022/10/24 04:51:01;;;;;;;14.77;3.28;;;;;;;;;;5033229;28;20029;-63
2022/10/24 04:53:27;;;;;;;18.90;3.08;;;;;;;;;;5034416;28;20428;-63
2022/10/24 04:55:53;;;;;;;19.60;2.83;;;;;;;;;;5034801;28;20033;-63
2022/10/24 04:58:19;;;;;;;16.58;3.22;;;;;;;;;;5034900;28;20033;-63
2022/10/24 05:00:48;;;;;;;17.83;2.70;;;;;;;;;;5034795;28;20393;-63
2022/10/24 05:03:14;;;;;;;16.23;4.55;;;;;;;;;;5034635;28;20033;-63
2022/10/24 05:05:40;;;;;;;12.48;2.40;;;;;;;;;;5031659;28;20508;-63
2022/10/24 05:08:06;;;;;;;17.77;2.97;;;;;;;;;;5034441;28;20107;-63
2022/10/24 05:10:33;;;;;;;17.95;3.20;;;;;;;;;;5034167;28;20502;-63
2022/10/24 05:12:59;;;;;;;12.90;2.88;;;;;;;;;;5032771;28;20116;-63
2022/10/24 05:15:25;;;;;;;19.42;3.85;;;;;;;;;;5034537;28;20037;-63
2022/10/24 05:17:51;;;;;;;19.50;3.65;;;;;;;;;;5034521;28;20072;-63
2022/10/24 05:20:17;;;;;;;13.65;3.00;;;;;;;;;;5031991;28;20481;-63
2022/10/24 05:22:43;;;;;;;17.70;2.63;;;;;;;;;;5033343;28;20040;-63
2022/10/24 05:25:09;;;;;;;15.60;2.90;;;;;;;;;;5033494;28;20030;-63
2022/10/24 05:27:35;;;;;;;14.68;3.60;;;;;;;;;;5032957;28;20044;-63
2022/10/24 05:30:01;;;;;;;18.73;4.47;;;;;;;;;;5034040;28;20056;-63
2022/10/24 05:32:28;;;;;;;17.80;3.70;;;;;;;;;;5034315;28;20029;-63
2022/10/24 05:34:54;;;;;;;19.83;2.92;;;;;;;;;;5033855;28;20029;-63
2022/10/24 05:37:20;;;;;;;20.38;3.50;;;;;;;;;;5034110;28;20057;-63
2022/10/24 05:39:46;;;;;;;20.40;3.10;;;;;;;;;;5032701;28;20029;-63
2022/10/24 05:42:12;;;;;;;15.25;3.25;;;;;;;;;;5034056;28;20031;-63
2022/10/24 05:44:38;;;;;;;26.10;3.63;;;;;;;;;;5033942;28;20063;-63
2022/10/24 05:47:04;;;;;;;24.98;4.18;;;;;;;;;;5033649;28;20037;-63
2022/10/24 05:49:31;;;;;;;23.60;6.00;;;;;;;;;;5033509;28;20060;-63
2022/10/24 05:51:57;;;;;;;20.35;3.38;;;;;;;;;;5029215;28;20049;-63
2022/10/24 05:54:23;;;;;;;14.85;2.42;;;;;;;;;;5025661;28;20029;-63
2022/10/24 05:56:49;;;;;;;15.20;2.50;;;;;;;;;;5018668;28;20029;-63
2022/10/24 05:59:15;;;;;;;11.57;1.95;;;;;;;;;;5023863;28;20029;-67
2022/10/24 06:01:41;;;;;;;12.30;2.42;;;;;;;;;;5025010;28;20021;-63
2022/10/24 06:04:08;;;;;;;17.38;3.90;;;;;;;;;;5033323;28;20035;-63
2022/10/24 06:06:37;;;;;;;10.55;2.30;;;;;;;;;;5028810;28;20100;-64
2022/10/24 06:09:03;;;;;;;10.70;2.03;;;;;;;;;;5025662;28;20156;-63
2022/10/24 06:11:30;;;;;;;18.33;2.63;;;;;;;;;;5028894;28;20059;-63
2022/10/24 06:13:56;;;;;;;9.95;2.00;;;;;;;;;;5037021;28;20025;-63
2022/10/24 06:16:23;;;;;;;12.57;2.60;;;;;;;;;;5027801;28;20018;-63
2022/10/24 06:18:50;;;;;;;14.43;2.47;;;;;;;;;;5027357;28;20432;-63
2022/10/24 06:21:16;;;;;;;16.23;3.67;;;;;;;;;;5026234;28;20034;-63
2022/10/24 06:23:42;;;;;;;14.27;3.70;;;;;;;;;;5028687;28;20044;-63
2022/10/24 06:26:10;;;;;;;19.88;4.47;;;;;;;;;;5028325;28;20496;-64
2022/10/24 06:28:37;;;;;;;16.80;3.50;;;;;;;;;;5024450;28;20076;-64
2022/10/24 06:31:03;;;;;;;11.18;2.67;;;;;;;;;;5018959;28;20022;-64
2022/10/24 06:33:30;;;;;;;6.72;2.45;;;;;;;;;;5021985;28;20120;-65
2022/10/24 06:35:59;;;;;;;24.70;3.90;;;;;;;;;;5022235;28;20084;-64
2022/10/24 06:38:25;;;;;;;16.40;3.72;;;;;;;;;;5017744;28;20033;-65
2022/10/24 06:40:51;;;;;;;12.00;3.25;;;;;;;;;;5016124;28;20033;-64
2022/10/24 06:43:18;;;;;;;19.77;3.22;;;;;;;;;;5021845;28;20029;-64
2022/10/24 06:45:45;;;;;;;15.43;3.63;;;;;;;;;;5019316;28;20116;-64
2022/10/24 06:48:11;;;;;;;16.65;2.92;;;;;;;;;;5039683;28;20072;-64
2022/10/24 06:50:40;;;;;;;12.07;2.63;;;;;;;;;;5027912;28;20033;-64
2022/10/24 06:53:07;;;;;;;20.75;3.65;;;;;;;;;;5018729;28;20030;-64
2022/10/24 06:55:33;;;;;;;20.23;3.45;;;;;;;;;;5020707;28;20101;-64
2022/10/24 06:57:59;;;;;;;20.38;3.60;;;;;;;;;;5022933;28;20053;-64
2022/10/24 07:00:25;;;;;;;12.95;2.22;;;;;;;;;;5025735;28;20088;-64
2022/10/24 07:02:52;;;;;;;17.45;2.80;;;;;;;;;;5023821;28;20375;-64
2022/10/24 07:05:18;;;;;;;15.68;3.00;;;;;;;;;;5024363;28;20031;-64
2022/10/24 07:07:44;;;;;;;10.65;2.22;;;;;;;;;;5027455;28;20065;-64
2022/10/24 07:10:12;;;;;;;20.23;2.22;;;;;;;;;;5028618;28;20037;-64
2022/10/24 07:12:38;;;;;;;13.43;2.75;;;;;;;;;;5019776;28;20053;-64
2022/10/24 07:15:04;;;;;;;16.08;2.10;;;;;;;;;;5019720;28;20029;-64
2022/10/24 07:17:30;;;;;;;16.67;2.38;;;;;;;;;;5019017;28;20177;-64
2022/10/24 07:19:57;;;;;;;10.82;1.83;;;;;;;;;;5020501;28;20032;-64
2022/10/24 07:22:23;;;;;;;14.10;1.95;;;;;;;;;;5023529;28;20037;-64
2022/10/24 07:24:53;;;;;;;7.63;1.50;;;;;;;;;;5033510;28;20227;-64
2022/10/24 07:27:20;;;;;;;10.05;1.90;;;;;;;;;;5032006;28;20026;-64
2022/10/24 07:29:46;;;;;;;7.13;1.67;;;;;;;;;;5034446;28;20021;-64
2022/10/24 07:32:12;;;;;;;12.15;2.17;;;;;;;;;;5026124;28;20151;-64
2022/10/24 07:34:38;;;;;;;12.30;1.60;;;;;;;;;;5030216;28;20049;-64
2022/10/24 07:37:04;;;;;;;11.52;1.55;;;;;;;;;;5034146;28;20469;-64
2022/10/24 07:39:31;;;;;;;8.95;1.90;;;;;;;;;;5034465;28;20022;-64
2022/10/24 07:41:57;;;;;;;12.90;2.95;;;;;;;;;;5032783;28;20030;-64
2022/10/24 07:44:23;;;;;;;11.43;1.67;;;;;;;;;;5033328;28;20025;-64
2022/10/24 07:46:49;;;;;;;9.95;1.75;;;;;;;;;;5033270;28;20065;-64
2022/10/24 07:49:15;;;;;;;7.78;1.50;;;;;;;;;;5033241;28;20037;-64
2022/10/24 07:51:42;;;;;;;13.63;3.00;;;;;;;;;;5033763;28;20060;-64
2022/10/24 07:54:08;;;;;;;9.65;1.80;;;;;;;;;;5032027;28;20064;-64
2022/10/24 07:56:34;;;;;;;9.73;2.15;;;;;;;;;;5033598;28;20069;-64
2022/10/24 07:59:01;;;;;;;21.52;2.28;;;;;;;;;;5033191;28;20420;-64
2022/10/24 08:01:28;;;;;;;8.00;1.58;;;;;;;;;;5034079;28;20064;-64
2022/10/24 08:03:55;;;;;;;10.50;2.25;;;;;;;;;;5031970;28;20095;-64
2022/10/24 08:06:22;;;;;;;7.93;1.40;;;;;;;;;;5032968;28;20048;-64
2022/10/24 08:08:48;;;;;;;7.93;2.10;;;;;;;;;;5033667;28;20108;-64
2022/10/24 08:11:20;;;;;;;9.18;1.90;;;;;;;;;;5033426;28;20099;-64
2022/10/24 08:13:46;;;;;;;12.15;1.65;;;;;;;;;;5034375;28;20029;-64
2022/10/24 08:16:13;;;;;;;10.40;1.75;;;;;;;;;;5032243;28;20030;-64
2022/10/24 08:18:39;;;;;;;17.25;2.40;;;;;;;;;;5033257;28;20021;-64
2022/10/24 08:21:07;;;;;;;11.20;2.17;;;;;;;;;;5031918;28;20049;-64
2022/10/24 08:23:33;;;;;;;13.77;2.45;;;;;;;;;;5034839;28;20057;-64
2022/10/24 08:25:59;;;;;;;18.27;2.50;;;;;;;;;;5033937;28;20083;-64
2022/10/24 08:28:26;;;;;;;13.35;2.38;;;;;;;;;;5031760;28;20036;-64
2022/10/24 08:30:59;;;;;;;7.55;2.13;;;;;;;;;;5026271;28;20066;-64
2022/10/24 08:33:25;;;;;;;15.80;1.90;;;;;;;;;;5024789;28;20029;-64
2022/10/24 08:35:53;;;;;;;6.28;1.92;;;;;;;;;;5030971;28;20072;-64
2022/10/24 08:38:19;;;;;;;12.90;2.63;;;;;;;;;;5031772;28;20164;-64
2022/10/24 08:40:47;;;;;;;8.70;1.92;;;;;;;;;;5033595;28;20037;-64
2022/10/24 08:43:13;;;;;;;13.98;2.08;;;;;;;;;;5036731;28;20061;-64
2022/10/24 08:45:51;;;;;;;6.38;1.63;;;;;;;;;;5032382;28;20021;-64
2022/10/24 08:48:21;;;;;;;14.05;2.47;;;;;;;;;;5029900;28;20122;-64
2022/10/24 08:50:49;;;;;;;14.63;2.17;;;;;;;;;;5027527;28;20029;-64
2022/10/24 08:53:21;;;;;;;12.48;3.47;;;;;;;;;;5031817;28;20494;-64
2022/10/24 08:55:54;;;;;;;12.65;1.92;;;;;;;;;;5029651;28;20018;-64
2022/10/24 08:58:20;;;;;;;;;;;;;;;;;;5037320;28;20029;-64
2022/10/24 09:00:47;;;;;;;16.33;2.20;;;;;;;;;;5033919;28;20307;-64
2022/10/24 09:03:37;;;;;;;11.48;2.13;;;;;;;;;;5033745;28;20029;-64
2022/10/24 09:06:06;;;;;;;10.38;2.10;;;;;;;;;;5030748;28;20076;-64
2022/10/24 09:08:51;;;;;;;15.20;3.03;;;;;;;;;;5031558;28;20059;-64
2022/10/24 09:11:24;;;;;;;13.20;2.00;;;;;;;;;;5031613;28;20067;-64
2022/10/24 09:13:50;;;;;;;;;;;;;;;;;;5038142;28;20060;-64
2022/10/24 09:16:19;;;;;;;13.57;1.95;;;;;;;;;;5030950;28;19944;-64
2022/10/24 09:18:46;;;;;;;13.43;2.10;;;;;;;;;;5031858;28;20116;-64
2022/10/24 09:21:14;;;;;;;10.15;2.40;;;;;;;;;;5033943;28;20021;-64
2022/10/24 09:23:41;;;;;;;11.30;2.75;;;;;;;;;;5033332;28;20056;-64
2022/10/24 09:26:12;;;;;;;17.52;2.30;;;;;;;;;;5032300;28;20048;-64
2022/10/24 09:28:38;;;;;;;11.27;2.15;;;;;;;;;;5032851;28;20029;-64
2022/10/24 09:31:14;;;;;;;10.07;1.98;;;;;;;;;;5032800;28;20072;-64
2022/10/24 09:33:41;;;;;;;14.27;3.83;;;;;;;;;;5035243;28;20033;-64
2022/10/24 09:36:14;;;;;;;10.00;1.73;;;;;;;;;;5031087;28;20024;-64
2022/10/24 09:38:41;;;;;;;9.35;1.88;;;;;;;;;;5031441;28;20025;-64
2022/10/24 09:41:15;;;;;;;13.57;2.08;;;;;;;;;;5035155;28;20037;-64
2022/10/24 09:43:46;;;;;;;18.13;2.33;;;;;;;;;;5033778;28;20025;-64
2022/10/24 09:46:15;;;;;;;16.40;2.77;;;;;;;;;;5031116;28;20068;-64
2022/10/24 09:48:41;;;;;;;18.38;2.65;;;;;;;;;;5033615;28;20067;-64
2022/10/24 09:51:07;;;;;;;18.65;2.33;;;;;;;;;;5033793;28;20048;-64
2022/10/24 09:53:34;;;;;;;16.35;2.30;;;;;;;;;;5033364;28;20037;-64
2022/10/24 09:56:11;;;;;;;22.30;2.35;;;;;;;;;;5031703;28;20052;-64
2022/10/24 09:58:38;;;;;;;18.92;2.42;;;;;;;;;;5029482;28;20091;-64
2022/10/24 10:01:05;;;;;;;10.25;2.58;;;;;;;;;;5031149;28;20104;-64
2022/10/24 10:03:32;;;;;;;11.30;2.08;;;;;;;;;;5033743;28;20063;-64
2022/10/24 10:06:00;;;;;;;15.23;2.00;;;;;;;;;;5029233;28;20034;-64
2022/10/24 10:08:28;;;;;;;12.50;2.35;;;;;;;;;;5029594;28;20079;-64
2022/10/24 10:11:00;;;;;;;10.70;1.95;;;;;;;;;;5032981;28;20084;-64
2022/10/24 10:13:27;;;;;;;13.63;1.98;;;;;;;;;;5030379;28;20059;-64
2022/10/24 10:15:55;;;;;;;15.73;2.00;;;;;;;;;;5029303;28;20064;-64
2022/10/24 10:18:27;;;;;;;9.43;2.42;;;;;;;;;;5033173;28;20029;-64
2022/10/24 10:20:58;;;;;;;10.17;2.00;;;;;;;;;;5030768;28;20153;-64
2022/10/24 10:23:27;;;;;;;13.43;2.33;;;;;;;;;;5032029;28;20038;-64
2022/10/24 10:26:13;;;;;;;12.10;3.83;;;;;;;;;;5029403;28;20022;-64
2022/10/24 10:28:45;;;;;;;8.38;1.80;;;;;;;;;;5029805;28;20068;-64
2022/10/24 10:31:18;;;;;;;5.07;2.15;;;;;;;;;;5032915;28;20045;-64
2022/10/24 10:33:44;;;;;;;9.55;2.13;;;;;;;;;;5027411;28;20040;-64
2022/10/24 10:36:15;;;;;;;12.00;2.58;;;;;;;;;;5027077;28;20030;-64
2022/10/24 10:38:47;;;;;;;10.73;2.03;;;;;;;;;;5026845;28;20109;-64
2022/10/24 10:41:29;;;;;;;10.07;1.87;;;;;;;;;;5030808;28;20022;-64
2022/10/24 10:43:58;;;;;;;9.20;1.65;;;;;;;;;;5028473;28;20275;-64
2022/10/24 10:46:28;;;;;;;9.20;1.67;;;;;;;;;;5031061;28;20104;-64
2022/10/24 10:48:54;;;;;;;7.25;1.63;;;;;;;;;;5031644;28;20048;-64
2022/10/24 10:51:20;;;;;;;11.82;1.67;;;;;;;;;;5032130;28;20389;-64
2022/10/24 10:53:51;;;;;;;19.80;2.45;;;;;;;;;;5032707;28;20087;-64
2022/10/24 10:56:43;;;;;;;12.77;1.88;;;;;;;;;;5031956;28;20044;-64
2022/10/24 10:59:28;;;;;;;14.27;1.85;;;;;;;;;;5031117;28;20033;-64
2022/10/24 11:01:59;;;;;;;9.43;1.88;;;;;;;;;;5029480;28;20706;-64
2022/10/24 11:04:40;;;;;;;15.80;2.78;;;;;;;;;;5028102;28;20865;-64
2022/10/24 11:07:18;;;;;;;14.05;2.17;;;;;;;;;;5032808;28;20390;-67
2022/10/24 11:09:47;;;;;;;10.95;1.75;;;;;;;;;;5031928;28;20095;-64
2022/10/24 11:12:13;;;;;;;10.80;2.45;;;;;;;;;;5033377;28;20043;-64
2022/10/24 11:14:42;;;;;;;10.27;1.90;;;;;;;;;;5030931;28;20038;-63
2022/10/24 11:17:18;;;;;;;9.15;1.98;;;;;;;;;;5032010;28;20481;-63
2022/10/24 11:19:44;;;;;;;10.05;2.33;;;;;;;;;;5028683;28;20032;-63
2022/10/24 11:22:14;;;;;;;7.97;1.67;;;;;;;;;;5028943;28;20036;-63
2022/10/24 11:24:44;;;;;;;9.60;1.75;;;;;;;;;;5025783;28;20025;-63
2022/10/24 11:27:15;;;;;;;12.75;1.60;;;;;;;;;;5028770;28;20034;-63
2022/10/24 11:29:56;;;;;;;11.77;1.88;;;;;;;;;;5029787;28;20025;-63
2022/10/24 11:32:42;;;;;;;12.13;2.20;;;;;;;;;;5025179;28;20061;-63
2022/10/24 11:35:26;;;;;;;12.52;2.40;;;;;;;;;;5027072;28;20040;-63
2022/10/24 11:37:58;;;;;;;15.63;2.78;;;;;;;;;;5031318;28;20025;-63
2022/10/24 11:40:26;;;;;;;11.73;2.45;;;;;;;;;;5025459;28;20121;-63
2022/10/24 11:42:58;;;;;;;16.00;2.67;;;;;;;;;;5030094;28;20517;-63
2022/10/24 11:45:28;;;;;;;19.15;2.70;;;;;;;;;;5022248;28;20437;-63
2022/10/24 11:47:55;;;;;;;15.85;2.22;;;;;;;;;;5028603;28;20161;-63
2022/10/24 11:50:27;;;;;;;10.50;1.83;;;;;;;;;;5023976;28;20049;-63
2022/10/24 11:53:01;;;;;;;16.33;2.75;;;;;;;;;;5023322;28;20034;-63
2022/10/24 11:55:37;;;;;;;19.45;2.42;;;;;;;;;;5027025;28;20034;-64
2022/10/24 11:58:07;;;;;;;20.90;2.80;;;;;;;;;;5030631;28;20021;-64
2022/10/24 12:00:41;;;;;;;15.30;2.33;;;;;;;;;;5031410;28;20021;-64
2022/10/24 12:03:07;;;;;;;15.02;2.53;;;;;;;;;;5020107;28;20116;-64
2022/10/24 12:05:43;;;;;;;13.30;2.75;;;;;;;;;;5025895;28;20037;-63
2022/10/24 12:08:12;;;;;;;12.25;2.67;;;;;;;;;;5028008;28;20048;-64
2022/10/24 12:10:44;;;;;;;10.43;2.42;;;;;;;;;;5023474;28;20038;-63
2022/10/24 12:13:29;;;;;;;11.52;2.22;;;;;;;;;;5024932;28;20037;-63
2022/10/24 12:16:01;;;;;;;11.52;2.22;;;;;;;;;;5025866;28;20030;-63
2022/10/24 12:18:27;;;;;;;12.82;1.83;;;;;;;;;;5024926;28;20026;-63
2022/10/24 12:20:54;;;;;;;17.65;3.45;;;;;;;;;;5020291;28;20030;-63
2022/10/24 12:23:26;;;;;;;11.77;1.70;;;;;;;;;;5024529;28;20477;-63
2022/10/24 12:26:21;;;;;;;15.05;2.15;;;;;;;;;;5027755;28;20040;-63
2022/10/24 12:28:54;;;;;;;14.60;2.10;;;;;;;;;;5035364;28;20041;-63
2022/10/24 12:31:21;;;;;;;12.55;1.90;;;;;;;;;;5030871;28;20064;-64
2022/10/24 12:34:07;;;;;;;10.80;2.28;;;;;;;;;;5027556;28;20087;-63
2022/10/24 12:36:52;;;;;;;12.10;2.22;;;;;;;;;;5031148;28;20385;-64
2022/10/24 12:39:28;;;;;;;12.50;2.42;;;;;;;;;;5032433;28;20112;-64
2022/10/24 12:41:55;;;;;;;8.10;1.77;;;;;;;;;;5037679;28;20027;-64
2022/10/24 12:44:35;;;;;;;9.52;2.05;;;;;;;;;;5032607;28;20029;-64
2022/10/24 12:47:16;;;;;;;5.85;1.65;;;;;;;;;;5034694;28;20037;-64
2022/10/24 12:49:42;;;;;;;6.53;1.45;;;;;;;;;;5033911;28;20381;-64
2022/10/24 12:52:27;;;;;;;6.93;1.60;;;;;;;;;;5035595;28;20021;-64
2022/10/24 12:54:53;;;;;;;3.38;1.15;;;;;;;;;;5032686;28;20061;-64
2022/10/24 12:57:21;;;;;;;3.92;1.27;;;;;;;;;;5034267;28;20024;-64
2022/10/24 12:59:49;;;;;;;8.27;1.70;;;;;;;;;;5030824;28;20108;-64
2022/10/24 13:02:15;;;;;;;6.22;1.40;;;;;;;;;;5031722;28;20053;-64
2022/10/24 13:04:50;;;;;;;8.63;1.55;;;;;;;;;;5031724;28;20021;-64
2022/10/24 13:07:22;;;;;;;8.55;1.95;;;;;;;;;;5032785;28;20079;-64
2022/10/24 13:09:51;;;;;;;9.63;1.83;;;;;;;;;;5031693;28;20025;-64
2022/10/24 13:12:20;;;;;;;14.52;2.33;;;;;;;;;;5035692;28;20094;-64
2022/10/24 13:15:05;;;;;;;13.10;2.10;;;;;;;;;;5034938;28;20033;-64
2022/10/24 13:17:31;;;;;;;11.05;1.77;;;;;;;;;;5032756;28;20047;-63
2022/10/24 13:20:16;;;;;;;11.60;2.10;;;;;;;;;;5035597;28;20053;-63
2022/10/24 13:22:42;;;;;;;8.85;1.58;;;;;;;;;;5033857;28;20026;-64
2022/10/24 13:25:19;;;;;;;7.05;1.67;;;;;;;;;;5032254;28;20056;-64
2022/10/24 13:27:45;;;;;;;6.90;1.23;;;;;;;;;;5033031;28;20080;-64
2022/10/24 13:30:25;;;;;;;6.60;1.67;;;;;;;;;;5040066;28;20048;-64
2022/10/24 13:32:51;;;;;;;6.68;1.30;;;;;;;;;;5029129;28;20021;-64
2022/10/24 13:35:20;;;;;;;8.68;1.25;;;;;;;;;;5032439;28;20034;-64
2022/10/24 13:37:49;;;;;;;8.43;2.15;;;;;;;;;;5031677;28;20033;-64
2022/10/24 13:40:28;;;;;;;7.45;1.70;;;;;;;;;;5033592;28;20045;-64
2022/10/24 13:42:59;;;;;;;7.75;1.20;;;;;;;;;;5032706;28;20033;-64
2022/10/24 13:45:43;;;;;;;8.00;1.48;;;;;;;;;;5028862;28;20041;-64
2022/10/24 13:48:11;;;;;;;10.35;1.45;;;;;;;;;;5030173;28;20021;-63
2022/10/24 13:50:48;;;;;;;10.45;1.70;;;;;;;;;;5032616;28;20025;-64
2022/10/24 13:53:20;;;;;;;10.82;1.58;;;;;;;;;;5031242;28;20037;-63
2022/10/24 13:55:47;;;;;;;9.95;1.73;;;;;;;;;;5032368;28;20026;-64
2022/10/24 13:58:19;;;;;;;10.40;1.80;;;;;;;;;;5033690;28;20497;-63
2022/10/24 14:00:47;;;;;;;9.95;1.60;;;;;;;;;;5030956;28;20458;-63
2022/10/24 14:03:15;;;;;;;20.00;2.78;;;;;;;;;;5030590;28;20034;-63
2022/10/24 14:05:47;;;;;;;8.57;1.60;;;;;;;;;;5026766;28;20069;-64
2022/10/24 14:08:34;;;;;;;12.00;1.83;;;;;;;;;;5025621;28;20040;-64
2022/10/24 14:11:02;;;;;;;12.48;1.52;;;;;;;;;;5031222;28;20429;-64
2022/10/24 14:13:30;;;;;;;7.85;1.63;;;;;;;;;;5037715;28;20046;-64
2022/10/24 14:15:58;;;;;;;5.70;1.50;;;;;;;;;;5036583;28;20017;-64
2022/10/24 14:18:24;;;;;;;6.53;1.23;;;;;;;;;;5034943;28;20052;-65
2022/10/24 14:20:52;;;;;;;8.48;1.50;;;;;;;;;;5031948;28;20633;-64
2022/10/24 14:23:25;;;;;;;9.15;1.63;;;;;;;;;;5035585;28;20412;-64
2022/10/24 14:25:59;;;;;;;6.88;2.28;;;;;;;;;;5031471;28;20029;-64
2022/10/24 14:28:27;;;;;;;7.15;1.27;;;;;;;;;;5034128;28;20116;-64
2022/10/24 14:31:01;;;;;;;12.45;1.80;;;;;;;;;;5027590;28;20476;-64
2022/10/24 14:33:31;;;;;;;7.03;2.08;;;;;;;;;;5033118;28;20057;-64
2022/10/24 14:35:59;;;;;;;12.60;1.88;;;;;;;;;;5033276;28;20025;-64
2022/10/24 14:38:26;;;;;;;10.02;1.65;;;;;;;;;;5035883;28;20021;-64
2022/10/24 14:40:52;;;;;;;6.72;1.70;;;;;;;;;;5031824;28;20039;-64
2022/10/24 14:43:24;;;;;;;6.82;2.30;;;;;;;;;;5030310;28;20021;-64
2022/10/24 14:46:09;;;;;;;12.90;2.77;;;;;;;;;;5032195;28;20094;-64